Time;durP1;ratioP1;P1;durP2;ratioP2;P2;SDS_P1;SDS_P2;PMS_P1;PMS_P2;Temp;Humidity;BMP_temperature;BMP_pressure;BME280_temperature;BME280_humidity;BME280_pressure;Samples;Min_cycle;Max_cycle;Signal;HPM_P1;HPM_P2
2023/01/08 00:00:42;;;;;;;2.80;2.00;;;;;;;8.81;85.90;100272.88;5072721;28;20651;-82
2023/01/08 00:03:07;;;;;;;3.25;2.10;;;;;;;8.77;85.93;100261.72;5075301;28;20049;-82
2023/01/08 00:05:32;;;;;;;3.63;1.90;;;;;;;8.78;85.87;100259.97;5072956;28;20040;-82
2023/01/08 00:07:58;;;;;;;3.25;2.00;;;;;;;8.76;85.87;100260.03;5074816;28;20025;-82
2023/01/08 00:10:23;;;;;;;3.28;2.22;;;;;;;8.74;85.91;100263.53;5049233;28;20496;-82
2023/01/08 00:12:48;;;;;;;3.47;2.00;;;;;;;8.74;86.03;100271.31;5048953;28;20028;-82
2023/01/08 00:15:13;;;;;;;3.05;2.03;;;;;;;8.73;85.98;100269.63;5073853;28;20123;-83
2023/01/08 00:17:39;;;;;;;3.88;2.13;;;;;;;8.70;85.99;100256.75;5075358;28;20093;-82
2023/01/08 00:20:04;;;;;;;2.92;1.95;;;;;;;8.72;85.98;100261.00;5074091;28;20072;-82
2023/01/08 00:22:30;;;;;;;3.63;1.92;;;;;;;8.72;85.88;100267.91;5074256;28;20028;-83
2023/01/08 00:24:55;;;;;;;2.60;1.80;;;;;;;8.73;85.86;100264.44;5073443;28;20619;-82
2023/01/08 00:27:21;;;;;;;3.95;2.33;;;;;;;8.76;85.97;100260.03;5075142;28;20024;-82
2023/01/08 00:29:46;;;;;;;4.38;2.35;;;;;;;8.76;85.80;100260.03;5073578;28;20505;-82
2023/01/08 00:32:11;;;;;;;4.97;2.17;;;;;;;8.77;85.97;100260.88;5074319;28;20112;-82
2023/01/08 00:34:36;;;;;;;5.13;2.00;;;;;;;8.81;86.01;100257.31;5071754;28;20438;-82
2023/01/08 00:37:02;;;;;;;4.45;2.33;;;;;;;8.83;86.08;100255.53;5074832;28;20263;-82
2023/01/08 00:39:27;;;;;;;4.32;2.00;;;;;;;8.84;85.73;100241.66;5073754;28;20029;-83
2023/01/08 00:41:52;;;;;;;3.60;1.90;;;;;;;8.84;86.02;100235.59;5073632;28;20037;-82
2023/01/08 00:44:17;;;;;;;5.30;2.05;;;;;;;8.83;86.17;100232.19;5073818;28;20036;-82
2023/01/08 00:46:43;;;;;;;5.13;2.25;;;;;;;8.83;85.90;100227.00;5071704;28;20164;-82
2023/01/08 00:49:08;;;;;;;3.88;2.00;;;;;;;8.83;85.85;100234.78;5056217;28;20447;-82
2023/01/08 00:51:33;;;;;;;4.28;2.00;;;;;;;8.83;85.99;100229.59;5074018;28;20039;-82
2023/01/08 00:53:58;;;;;;;3.70;2.20;;;;;;;8.85;85.72;100224.34;5055958;28;20093;-82
2023/01/08 00:56:24;;;;;;;3.83;2.28;;;;;;;8.84;85.95;100222.63;5072560;28;20032;-82
2023/01/08 00:58:49;;;;;;;4.13;2.15;;;;;;;8.85;85.95;100217.44;5073869;28;20403;-83
2023/01/08 01:01:15;;;;;;;3.67;2.13;;;;;;;8.84;85.81;100220.91;5071976;28;20043;-83
2023/01/08 01:03:41;;;;;;;3.67;2.20;;;;;;;8.85;85.63;100212.25;5073873;28;20106;-83
2023/01/08 01:06:07;;;;;;;4.40;2.38;;;;;;;8.84;86.11;100218.31;5073177;28;20034;-82
2023/01/08 01:08:33;;;;;;;5.63;2.13;;;;;;;8.83;86.04;100208.84;5072272;28;20123;-82
2023/01/08 01:10:59;;;;;;;3.30;2.00;;;;;;;8.82;85.70;100207.13;5073374;28;20090;-82
2023/01/08 01:13:24;;;;;;;3.40;2.15;;;;;;;8.83;85.97;100211.44;5072929;28;20982;-82
2023/01/08 01:16:00;;;;;;;5.05;2.13;;;;;;;8.84;86.00;100207.06;5073236;28;20060;-83
2023/01/08 01:18:26;;;;;;;3.38;2.17;;;;;;;8.85;85.74;100201.88;5071807;28;20032;-83
2023/01/08 01:20:52;;;;;;;3.97;2.00;;;;;;;8.84;85.98;100200.16;5074040;28;20032;-83
2023/01/08 01:23:17;;;;;;;2.47;1.85;;;;;;;8.85;85.88;100208.78;5071008;28;20032;-83
2023/01/08 01:25:42;;;;;;;3.20;2.00;;;;;;;8.85;85.64;100201.88;5072302;28;20033;-83
2023/01/08 01:28:08;;;;;;;5.47;2.10;;;;;;;8.86;85.64;100197.50;5071512;28;20539;-83
2023/01/08 01:30:33;;;;;;;4.68;2.13;;;;;;;8.86;85.70;100198.38;5089403;28;20035;-83
2023/01/08 01:32:58;;;;;;;6.78;2.65;;;;;;;8.85;85.70;100185.44;5072473;28;20056;-83
2023/01/08 01:35:24;;;;;;;3.85;2.08;;;;;;;8.84;85.86;100184.59;5071925;28;20029;-82
2023/01/08 01:37:49;;;;;;;4.45;2.00;;;;;;;8.84;85.92;100170.75;5066594;28;20020;-83
2023/01/08 01:40:14;;;;;;;5.35;2.10;;;;;;;8.84;85.61;100171.63;5072916;28;20384;-84
2023/01/08 01:42:39;;;;;;;4.55;2.15;;;;;;;8.86;85.88;100182.81;5072899;28;20038;-83
2023/01/08 01:45:21;;;;;;;4.07;1.90;;;;;;;8.86;85.75;100180.22;5072099;28;20487;-83
2023/01/08 01:47:52;;;;;;;4.30;2.20;;;;;;;8.85;85.81;100190.63;5071792;28;20028;-83
2023/01/08 01:50:36;;;;;;;4.03;1.92;;;;;;;8.85;85.88;100195.81;5073054;28;20111;-83
2023/01/08 01:53:14;;;;;;;3.10;1.80;;;;;;;8.85;86.05;100196.69;5070862;28;20215;-83
2023/01/08 01:55:41;;;;;;;4.20;1.88;;;;;;;8.85;86.05;100196.69;5070038;28;20082;-84
2023/01/08 01:58:14;;;;;;;3.15;1.85;;;;;;;8.88;85.89;100201.75;5070953;28;20108;-83
2023/01/08 02:00:41;;;;;;;5.20;2.00;;;;;;;8.86;86.26;100216.53;5088788;28;20035;-83
2023/01/08 02:03:08;;;;;;;4.13;1.88;;;;;;;8.89;83.72;100219.00;5071405;28;20056;-83
2023/01/08 02:05:57;;;;;;;5.10;1.60;;;;;;;8.85;83.01;100237.31;5072214;28;20028;-84
2023/01/08 02:08:48;;;;;;;1.80;0.98;;;;;;;8.69;83.57;100226.53;5070551;28;20097;-84
2023/01/08 02:11:25;;;;;;;2.15;0.82;;;;;;;8.54;84.18;100220.00;5073131;28;20036;-83
2023/01/08 02:13:57;;;;;;;3.33;0.80;;;;;;;8.41;84.48;100216.88;5072220;28;20032;-83
2023/01/08 02:16:35;;;;;;;1.63;0.80;;;;;;;8.29;84.92;100213.72;5071900;28;20039;-84
2023/01/08 02:19:32;;;;;;;1.77;0.73;;;;;;;8.26;85.40;100215.56;5071984;28;20024;-82
2023/01/08 02:22:27;;;;;;;1.92;0.73;;;;;;;8.14;86.09;100209.78;5056867;28;20102;-83
2023/01/08 02:25:35;;;;;;;2.15;0.93;;;;;;;8.08;86.39;100209.97;5071015;28;20493;-84
2023/01/08 02:28:06;;;;;;;1.42;0.70;;;;;;;7.99;86.50;100200.69;5031781;28;20188;-83
2023/01/08 02:30:31;;;;;;;1.23;0.63;;;;;;;7.97;86.33;100206.75;5072327;28;20043;-83
2023/01/08 02:32:57;;;;;;;3.05;0.80;;;;;;;7.94;86.68;100196.50;5071981;28;20368;-83
2023/01/08 02:35:22;;;;;;;2.22;0.70;;;;;;;7.87;86.97;100188.00;5071827;28;20028;-83
2023/01/08 02:37:47;;;;;;;2.35;0.75;;;;;;;7.85;86.70;100192.41;5072149;28;20021;-82
2023/01/08 02:40:15;;;;;;;1.33;0.55;;;;;;;7.80;87.05;100183.91;5070771;28;20044;-83
2023/01/08 02:42:54;;;;;;;2.28;0.70;;;;;;;7.78;87.03;100175.31;5072549;28;20032;-83
2023/01/08 02:45:30;;;;;;;2.92;0.60;;;;;;;7.72;87.32;100169.38;5071490;28;20025;-83
2023/01/08 02:48:20;;;;;;;1.77;0.68;;;;;;;7.71;87.56;100185.81;5070759;28;20035;-84
2023/01/08 02:50:57;;;;;;;2.17;0.70;;;;;;;7.66;87.67;100182.50;5071740;28;20020;-82
2023/01/08 02:53:27;;;;;;;2.10;0.85;;;;;;;7.63;87.64;100179.97;5072580;28;20028;-83
2023/01/08 02:56:14;;;;;;;2.03;0.63;;;;;;;7.58;87.90;100168.88;5071518;28;20035;-83
2023/01/08 02:58:40;;;;;;;2.53;0.60;;;;;;;7.56;88.21;100181.88;5071094;28;20020;-82
2023/01/08 03:01:10;;;;;;;2.67;0.60;;;;;;;7.53;88.50;100181.06;5071345;28;20044;-83
2023/01/08 03:03:39;;;;;;;1.17;0.50;;;;;;;7.52;88.87;100179.38;5056179;28;20143;-83
2023/01/08 03:06:07;;;;;;;2.95;0.65;;;;;;;7.51;88.49;100180.28;5075266;28;20032;-83
2023/01/08 03:08:36;;;;;;;2.50;0.65;;;;;;;7.49;88.77;100177.72;5074952;28;20109;-82
2023/01/08 03:11:07;;;;;;;0.60;0.40;;;;;;;7.47;88.91;100181.25;5074668;28;20033;-84
2023/01/08 03:13:49;;;;;;;1.83;0.60;;;;;;;7.49;88.72;100184.66;5075619;28;20099;-83
2023/01/08 03:16:20;;;;;;;3.38;0.60;;;;;;;7.47;88.90;100165.72;5074622;28;20534;-83
2023/01/08 03:18:50;;;;;;;1.60;0.40;;;;;;;7.44;89.23;100169.19;5075541;28;20020;-83
2023/01/08 03:21:17;;;;;;;3.33;0.77;;;;;;;7.43;88.91;100159.72;5075253;28;20024;-83
2023/01/08 03:23:45;;;;;;;2.33;0.60;;;;;;;7.41;88.91;100152.03;5076356;28;20641;-82
2023/01/08 03:26:14;;;;;;;2.72;0.52;;;;;;;7.41;89.16;100152.03;5074965;28;20033;-83
2023/01/08 03:28:44;;;;;;;2.60;0.50;;;;;;;7.42;89.26;100163.25;5074872;28;20036;-83
2023/01/08 03:31:14;;;;;;;2.40;0.57;;;;;;;7.38;89.50;100165.03;5074348;28;20025;-82
2023/01/08 03:33:41;;;;;;;1.40;0.38;;;;;;;7.38;89.21;100162.44;5076052;28;20062;-82
2023/01/08 03:36:08;;;;;;;2.60;0.70;;;;;;;7.38;89.20;100167.63;5074992;28;20064;-82
2023/01/08 03:38:39;;;;;;;4.22;0.40;;;;;;;7.38;89.07;100161.59;5074762;28;20032;-82
2023/01/08 03:41:10;;;;;;;2.10;0.40;;;;;;;7.36;89.31;100158.19;5075237;28;20107;-82
2023/01/08 03:43:35;;;;;;;1.97;0.40;;;;;;;7.35;89.55;100152.16;5073892;28;20395;-82
2023/01/08 03:46:04;;;;;;;4.55;0.90;;;;;;;7.36;89.24;100153.84;5074205;28;20290;-82
2023/01/08 03:48:32;;;;;;;2.42;0.70;;;;;;;7.37;89.58;100150.38;5071925;28;20032;-82
2023/01/08 03:50:58;;;;;;;2.67;0.70;;;;;;;7.36;89.57;100146.09;5075427;28;20028;-82
2023/01/08 03:53:24;;;;;;;2.05;0.40;;;;;;;7.36;89.81;100153.03;5075746;28;20032;-82
2023/01/08 03:55:49;;;;;;;2.53;0.45;;;;;;;7.35;89.57;100153.91;5074632;28;20017;-82
2023/01/08 03:58:14;;;;;;;3.78;0.52;;;;;;;7.37;89.93;100155.56;5074357;28;20052;-82
2023/01/08 04:00:40;;;;;;;1.95;0.40;;;;;;;7.38;89.67;100152.09;5071750;28;20021;-82
2023/01/08 04:03:05;;;;;;;2.75;0.80;;;;;;;7.37;89.96;100144.38;5075130;28;20043;-83
2023/01/08 04:05:30;;;;;;;1.75;0.60;;;;;;;7.36;89.62;100142.66;5074333;28;20048;-82
2023/01/08 04:07:56;;;;;;;2.83;0.73;;;;;;;7.36;89.67;100146.09;5074547;28;20025;-82
2023/01/08 04:10:23;;;;;;;2.95;0.60;;;;;;;7.37;89.80;100140.03;5072967;28;20024;-82
2023/01/08 04:12:48;;;;;;;1.60;0.52;;;;;;;7.36;89.85;100137.50;5085996;28;20028;-82
2023/01/08 04:15:14;;;;;;;2.60;0.40;;;;;;;7.37;89.89;100134.84;5071978;28;20457;-82
2023/01/08 04:17:39;;;;;;;2.28;0.40;;;;;;;7.38;89.77;100136.56;5056952;28;20035;-82
2023/01/08 04:20:05;;;;;;;1.52;0.40;;;;;;;7.40;89.75;100128.78;5073936;28;20032;-82
2023/01/08 04:22:30;;;;;;;2.30;0.52;;;;;;;7.40;90.20;100133.97;5074121;28;20028;-82
2023/01/08 04:24:55;;;;;;;1.70;0.60;;;;;;;7.42;89.69;100122.66;5073860;28;20055;-82
2023/01/08 04:27:21;;;;;;;0.75;0.50;;;;;;;7.40;89.70;100119.25;5056481;28;20029;-82
2023/01/08 04:29:46;;;;;;;2.80;0.70;;;;;;;7.40;89.77;100119.25;5089968;28;20025;-82
2023/01/08 04:32:11;;;;;;;2.85;0.60;;;;;;;7.40;89.72;100108.06;5072516;28;20035;-82
2023/01/08 04:34:36;;;;;;;2.33;0.70;;;;;;;7.39;89.73;100112.38;5074320;28;20028;-82
2023/01/08 04:37:02;;;;;;;2.08;0.80;;;;;;;7.39;90.19;100111.56;5074020;28;20487;-82
2023/01/08 04:39:27;;;;;;;2.35;0.70;;;;;;;7.40;89.66;100114.09;5073943;28;20032;-82
2023/01/08 04:41:53;;;;;;;1.30;0.70;;;;;;;7.39;90.09;100109.78;5068175;28;20021;-82
2023/01/08 04:44:18;;;;;;;2.80;0.70;;;;;;;7.41;90.05;100115.78;5066796;28;20028;-82
2023/01/08 04:46:43;;;;;;;2.33;0.70;;;;;;;7.41;89.80;100095.09;5073114;28;20077;-82
2023/01/08 04:49:10;;;;;;;3.35;0.70;;;;;;;7.43;89.75;100101.06;5074639;28;20032;-82
2023/01/08 04:51:35;;;;;;;3.13;0.90;;;;;;;7.43;89.90;100103.66;5057400;28;20036;-82
2023/01/08 04:54:00;;;;;;;2.83;1.15;;;;;;;7.46;89.98;100099.31;5074293;28;20032;-82
2023/01/08 04:56:26;;;;;;;3.08;1.08;;;;;;;7.47;90.03;100104.44;5072883;28;20028;-82
2023/01/08 04:58:51;;;;;;;3.10;1.00;;;;;;;7.47;89.86;100094.06;5056491;28;20020;-82
2023/01/08 05:01:21;;;;;;;3.17;0.95;;;;;;;7.48;89.66;100102.72;5072037;28;20023;-82
2023/01/08 05:03:46;;;;;;;2.80;1.10;;;;;;;7.47;89.74;100119.13;5073479;28;20044;-82
2023/01/08 05:06:12;;;;;;;2.10;0.88;;;;;;;7.46;89.65;100117.41;5073449;28;20028;-82
2023/01/08 05:08:37;;;;;;;2.10;0.90;;;;;;;7.45;89.38;100103.63;5071063;28;20074;-82
2023/01/08 05:11:03;;;;;;;2.67;0.98;;;;;;;7.45;89.52;100101.03;5073104;28;20033;-82
2023/01/08 05:13:28;;;;;;;2.15;0.80;;;;;;;7.41;89.48;100097.69;5072855;28;20123;-82
2023/01/08 05:15:58;;;;;;;2.08;0.70;;;;;;;7.41;88.86;100099.44;5074048;28;20452;-82
2023/01/08 05:18:23;;;;;;;2.08;0.70;;;;;;;7.40;89.16;100102.91;5073599;28;20054;-82
2023/01/08 05:20:48;;;;;;;0.98;0.60;;;;;;;7.40;88.60;100114.09;5079665;28;20052;-83
2023/01/08 05:23:14;;;;;;;1.13;0.50;;;;;;;7.39;88.75;100111.56;5070263;28;20025;-82
2023/01/08 05:25:39;;;;;;;2.60;0.75;;;;;;;7.36;89.16;100099.50;5072579;28;20387;-82
2023/01/08 05:28:04;;;;;;;1.52;0.60;;;;;;;7.36;89.25;100107.28;5068942;28;20044;-82
2023/01/08 05:30:29;;;;;;;2.95;0.60;;;;;;;7.36;89.23;100096.94;5070211;28;20150;-82
2023/01/08 05:32:55;;;;;;;1.60;0.80;;;;;;;7.36;89.20;100114.22;5071942;28;20028;-82
2023/01/08 05:35:20;;;;;;;2.05;0.88;;;;;;;7.34;89.48;100101.31;5073427;28;20035;-82
2023/01/08 05:37:45;;;;;;;1.65;0.80;;;;;;;7.36;89.48;100093.50;5071746;28;20047;-82
2023/01/08 05:40:11;;;;;;;3.55;1.00;;;;;;;7.34;89.41;100090.09;5072492;28;20066;-82
2023/01/08 05:42:36;;;;;;;2.65;0.93;;;;;;;7.34;89.35;100093.56;5072804;28;20021;-82
2023/01/08 05:45:04;;;;;;;3.40;0.90;;;;;;;7.35;89.24;100082.28;5072285;28;20401;-82
2023/01/08 05:47:30;;;;;;;2.05;0.85;;;;;;;7.35;88.84;100068.50;5072319;28;20032;-82
2023/01/08 05:49:55;;;;;;;1.42;0.77;;;;;;;7.33;88.53;100076.31;5070430;28;20070;-82
2023/01/08 05:52:21;;;;;;;2.47;0.80;;;;;;;7.35;88.59;100079.69;5072883;28;20055;-82
2023/01/08 05:54:46;;;;;;;4.30;0.95;;;;;;;7.34;88.30;100075.44;5072228;28;20043;-82
2023/01/08 05:57:11;;;;;;;1.65;0.80;;;;;;;7.32;87.96;100079.81;5072271;28;20024;-82
2023/01/08 05:59:37;;;;;;;3.13;1.00;;;;;;;7.29;87.78;100077.28;5072086;28;20052;-82
2023/01/08 06:02:02;;;;;;;2.42;0.75;;;;;;;7.27;87.58;100085.06;5064194;28;20028;-82
2023/01/08 06:04:27;;;;;;;4.05;0.90;;;;;;;7.22;87.61;100086.06;5071649;28;20043;-82
2023/01/08 06:06:52;;;;;;;2.92;0.80;;;;;;;7.20;87.37;100095.59;5070739;28;20028;-82
2023/01/08 06:09:18;;;;;;;2.53;0.88;;;;;;;7.14;87.34;100092.28;5071710;28;20201;-82
2023/01/08 06:11:44;;;;;;;2.92;1.00;;;;;;;7.10;87.01;100090.66;5067414;28;20035;-82
2023/01/08 06:14:09;;;;;;;1.75;0.90;;;;;;;7.06;87.14;100099.38;5072326;28;20054;-82
2023/01/08 06:16:34;;;;;;;3.72;0.85;;;;;;;7.01;86.99;100108.13;5053728;28;20020;-82
2023/01/08 06:18:59;;;;;;;3.95;1.20;;;;;;;6.98;87.02;100111.63;5072125;28;20025;-82
2023/01/08 06:21:25;;;;;;;4.00;1.00;;;;;;;6.93;86.95;100108.31;5053755;28;20036;-82
2023/01/08 06:23:50;;;;;;;3.03;0.80;;;;;;;6.90;86.53;100126.47;5073024;28;20407;-82
2023/01/08 06:26:15;;;;;;;2.70;0.77;;;;;;;6.83;86.31;100118.81;5070246;28;20028;-82
2023/01/08 06:28:41;;;;;;;3.15;0.82;;;;;;;6.80;86.07;100125.81;5061243;28;20033;-82
2023/01/08 06:31:06;;;;;;;2.05;0.65;;;;;;;6.75;85.84;100125.06;5064842;28;20029;-82
2023/01/08 06:33:31;;;;;;;2.60;0.93;;;;;;;6.72;85.61;100131.16;5067606;28;20376;-82
2023/01/08 06:36:03;;;;;;;3.05;0.80;;;;;;;6.70;85.74;100130.31;5072136;28;20475;-82
2023/01/08 06:38:33;;;;;;;2.10;0.80;;;;;;;6.67;85.59;100132.97;5071207;28;20020;-82
2023/01/08 06:41:03;;;;;;;1.73;0.70;;;;;;;6.64;85.72;100144.22;5070342;28;20099;-82
2023/01/08 06:43:28;;;;;;;3.38;0.70;;;;;;;6.58;85.48;100146.09;5059683;28;20120;-82
2023/01/08 06:45:56;;;;;;;1.13;0.55;;;;;;;6.57;85.33;100141.81;5068509;28;20056;-82
2023/01/08 06:48:22;;;;;;;1.58;0.70;;;;;;;6.53;85.38;100146.19;5052633;28;20429;-82
2023/01/08 06:50:47;;;;;;;1.15;0.60;;;;;;;6.50;84.87;100141.09;5059612;28;20499;-82
2023/01/08 06:53:12;;;;;;;2.20;0.60;;;;;;;6.47;84.77;100144.59;5052848;28;20104;-82
2023/01/08 06:55:38;;;;;;;2.03;0.70;;;;;;;6.44;84.62;100147.22;5056493;28;20032;-82
2023/01/08 06:58:03;;;;;;;3.30;0.80;;;;;;;6.40;84.63;100148.16;5061909;28;20101;-82
2023/01/08 07:00:28;;;;;;;3.25;0.63;;;;;;;6.36;84.34;100146.53;5068717;28;20052;-82
2023/01/08 07:02:54;;;;;;;3.08;0.52;;;;;;;6.35;84.22;100149.97;5068748;28;20380;-82
2023/01/08 07:05:20;;;;;;;5.03;0.60;;;;;;;6.33;83.93;100144.84;5053691;28;20103;-82
2023/01/08 07:07:46;;;;;;;5.35;0.70;;;;;;;6.32;84.08;100144.91;5063729;28;20116;-82
2023/01/08 07:10:11;;;;;;;3.03;0.43;;;;;;;6.29;84.29;100148.38;5070509;28;20103;-81
2023/01/08 07:12:36;;;;;;;1.77;0.50;;;;;;;6.28;84.41;100135.50;5071693;28;20020;-82
2023/01/08 07:15:02;;;;;;;3.13;0.63;;;;;;;6.29;84.13;100142.38;5069994;28;20025;-82
2023/01/08 07:17:28;;;;;;;3.05;0.50;;;;;;;6.27;84.35;100136.38;5052367;28;20021;-82
2023/01/08 07:19:53;;;;;;;1.65;0.43;;;;;;;6.26;84.65;100142.41;5067306;28;20494;-82
2023/01/08 07:22:19;;;;;;;4.72;0.60;;;;;;;6.26;84.52;100137.25;5070637;28;20395;-81
2023/01/08 07:24:45;;;;;;;3.25;1.05;;;;;;;6.23;84.48;100126.09;5072261;28;20471;-82
2023/01/08 07:27:10;;;;;;;2.63;0.70;;;;;;;6.23;84.56;100127.84;5070081;28;20020;-81
2023/01/08 07:29:35;;;;;;;3.20;0.60;;;;;;;6.22;84.30;100121.81;5070402;28;20476;-81
2023/01/08 07:32:01;;;;;;;3.42;0.90;;;;;;;6.19;84.79;100116.69;5066285;28;20032;-82
2023/01/08 07:34:26;;;;;;;3.97;0.70;;;;;;;6.19;84.47;100119.28;5054129;28;20500;-82
2023/01/08 07:36:51;;;;;;;3.33;0.60;;;;;;;6.17;84.48;100120.19;5069393;28;20435;-82
2023/01/08 07:39:17;;;;;;;3.65;0.70;;;;;;;6.17;84.44;100118.47;5069744;28;20029;-82
2023/01/08 07:41:43;;;;;;;3.17;1.02;;;;;;;6.15;84.46;100124.53;5058449;28;20036;-81
2023/01/08 07:44:08;;;;;;;1.80;0.60;;;;;;;6.14;84.38;100128.00;5062075;28;20037;-81
2023/01/08 07:46:34;;;;;;;3.45;0.70;;;;;;;6.11;84.65;100130.63;5072101;28;20174;-82
2023/01/08 07:48:59;;;;;;;5.32;0.70;;;;;;;6.08;84.13;100126.41;5065456;28;20040;-81
2023/01/08 07:51:25;;;;;;;2.45;0.52;;;;;;;6.05;84.45;100127.31;5071496;28;20483;-82
2023/01/08 07:53:50;;;;;;;3.25;0.65;;;;;;;6.02;84.50;100136.81;5074298;28;20021;-82
2023/01/08 07:56:16;;;;;;;7.53;0.70;;;;;;;5.98;84.78;100122.25;5075583;28;20028;-82
2023/01/08 07:58:41;;;;;;;3.67;0.77;;;;;;;5.93;84.58;100125.78;5071029;28;20067;-81
2023/01/08 08:01:09;;;;;;;3.92;0.70;;;;;;;5.93;84.58;100127.47;5071897;28;20037;-82
2023/01/08 08:03:34;;;;;;;4.57;0.70;;;;;;;5.95;84.76;100132.63;5070596;28;20141;-81
2023/01/08 08:06:00;;;;;;;3.63;0.63;;;;;;;5.91;85.00;100122.34;5075411;28;20052;-82
2023/01/08 08:08:25;;;;;;;3.83;0.63;;;;;;;5.93;84.83;100130.94;5074418;28;20036;-81
2023/01/08 08:10:51;;;;;;;2.00;0.47;;;;;;;5.90;85.06;100124.94;5071284;28;20383;-82
2023/01/08 08:13:16;;;;;;;4.13;0.70;;;;;;;5.90;85.30;100115.50;5073771;28;20025;-81
2023/01/08 08:15:41;;;;;;;2.33;0.50;;;;;;;5.92;85.08;100116.31;5078020;28;20506;-81
2023/01/08 08:18:07;;;;;;;4.20;0.65;;;;;;;5.95;85.44;100117.16;5074300;28;20017;-82
2023/01/08 08:20:33;;;;;;;4.53;0.50;;;;;;;5.96;85.25;100096.44;5067170;28;20428;-81
2023/01/08 08:23:03;;;;;;;3.83;0.50;;;;;;;5.99;85.32;100092.94;5055295;28;20040;-81
2023/01/08 08:25:29;;;;;;;2.83;0.50;;;;;;;6.02;85.18;100098.09;5071096;28;20111;-81
2023/01/08 08:27:58;;;;;;;2.45;0.60;;;;;;;6.07;85.11;100093.69;5073466;28;20054;-81
2023/01/08 08:30:25;;;;;;;4.38;1.02;;;;;;;6.11;85.41;100089.31;5068719;28;20029;-81
2023/01/08 08:32:51;;;;;;;4.22;0.60;;;;;;;6.15;85.54;100081.47;5064784;28;20054;-82
2023/01/08 08:35:16;;;;;;;2.60;0.60;;;;;;;6.18;85.27;100084.00;5066013;28;20467;-81
2023/01/08 08:37:41;;;;;;;2.05;0.60;;;;;;;6.22;85.68;100077.91;5062649;28;20112;-82
2023/01/08 08:40:07;;;;;;;3.00;0.70;;;;;;;6.27;85.49;100084.72;5057332;28;20065;-82
2023/01/08 08:42:32;;;;;;;1.90;0.57;;;;;;;6.29;86.05;100081.22;5066120;28;20074;-81
2023/01/08 08:44:58;;;;;;;4.05;0.73;;;;;;;6.33;85.60;100084.56;5074119;28;20536;-81
2023/01/08 08:47:23;;;;;;;4.60;0.80;;;;;;;6.36;85.35;100095.72;5066516;28;20033;-81
2023/01/08 08:49:48;;;;;;;4.35;0.80;;;;;;;6.39;85.41;100089.63;5070659;28;20059;-81
2023/01/08 08:52:14;;;;;;;5.40;1.05;;;;;;;6.40;85.71;100088.75;5057844;28;20135;-82
2023/01/08 08:54:40;;;;;;;2.92;0.63;;;;;;;6.38;85.35;100082.75;5060059;28;20082;-81
2023/01/08 08:57:07;;;;;;;2.38;0.50;;;;;;;6.35;85.37;100075.94;5049104;28;20048;-81
2023/01/08 08:59:32;;;;;;;4.28;0.82;;;;;;;6.36;85.74;100074.19;5068098;28;20024;-81
2023/01/08 09:01:58;;;;;;;4.68;0.70;;;;;;;6.34;85.44;100074.22;5068098;28;20464;-81
2023/01/08 09:04:23;;;;;;;3.95;0.60;;;;;;;6.33;85.71;100076.81;5069907;28;20131;-80
2023/01/08 09:06:48;;;;;;;4.38;0.77;;;;;;;6.31;85.58;100069.13;5064617;28;20040;-82
2023/01/08 09:09:14;;;;;;;2.58;0.70;;;;;;;6.29;85.67;100070.03;5058139;28;20056;-80
2023/01/08 09:11:39;;;;;;;5.05;0.77;;;;;;;6.27;85.81;100071.81;5084886;28;20412;-80
2023/01/08 09:14:05;;;;;;;4.60;0.70;;;;;;;6.25;85.66;100076.16;5080036;28;20039;-79
2023/01/08 09:16:31;;;;;;;4.25;0.70;;;;;;;6.23;86.01;100077.03;5081953;28;20031;-80
2023/01/08 09:18:57;;;;;;;4.85;0.70;;;;;;;6.20;85.78;100071.91;5082591;28;20016;-80
2023/01/08 09:21:22;;;;;;;5.90;0.90;;;;;;;6.18;85.87;100078.84;5084084;28;20028;-79
2023/01/08 09:23:48;;;;;;;5.32;1.20;;;;;;;6.15;85.97;100078.91;5076907;28;20032;-79
2023/01/08 09:26:13;;;;;;;4.53;0.90;;;;;;;6.16;86.35;100075.44;5072676;28;20088;-79
2023/01/08 09:28:38;;;;;;;2.47;0.55;;;;;;;6.14;86.31;100077.22;5075703;28;20043;-79
2023/01/08 09:31:04;;;;;;;3.00;0.98;;;;;;;6.13;86.57;100075.53;5077178;28;20038;-79
2023/01/08 09:33:29;;;;;;;6.63;0.90;;;;;;;6.11;87.00;100076.41;5074604;28;20040;-78
2023/01/08 09:35:55;;;;;;;4.05;0.98;;;;;;;6.11;86.59;100069.53;5078513;28;20028;-78
2023/01/08 09:38:20;;;;;;;3.85;0.70;;;;;;;6.11;86.82;100071.25;5077826;28;20031;-79
2023/01/08 09:40:54;;;;;;;3.38;0.70;;;;;;;6.11;87.03;100066.94;5080757;28;20031;-79
2023/01/08 09:43:21;;;;;;;3.95;0.77;;;;;;;6.11;87.29;100066.94;5076139;28;20040;-79
2023/01/08 09:45:54;;;;;;;5.28;0.77;;;;;;;6.14;87.34;100063.44;5076641;28;20036;-80
2023/01/08 09:48:24;;;;;;;2.53;0.75;;;;;;;6.14;87.57;100058.28;5071989;28;20041;-79
2023/01/08 09:50:49;;;;;;;5.03;0.93;;;;;;;6.17;87.76;100060.81;5071855;28;20036;-80
2023/01/08 09:53:17;;;;;;;4.50;0.80;;;;;;;6.18;87.49;100060.75;5072457;28;20036;-80
2023/01/08 09:55:43;;;;;;;4.32;1.10;;;;;;;6.20;87.36;100056.41;5074456;28;20032;-78
2023/01/08 09:58:37;;;;;;;4.53;0.90;;;;;;;6.23;87.40;100058.09;5076696;28;20029;-79
2023/01/08 10:01:04;;;;;;;3.25;0.80;;;;;;;6.25;87.91;100053.72;5068380;28;20041;-79
2023/01/08 10:03:42;;;;;;;5.82;1.00;;;;;;;6.29;88.15;100047.63;5069271;28;20554;-79
2023/01/08 10:06:12;;;;;;;3.55;0.80;;;;;;;6.33;88.27;100045.81;5069954;28;20039;-80
2023/01/08 10:08:38;;;;;;;3.42;1.05;;;;;;;6.34;88.27;100057.84;5077451;28;20390;-80
2023/01/08 10:11:04;;;;;;;5.55;0.80;;;;;;;6.37;88.09;100044.88;5076067;28;20467;-80
2023/01/08 10:13:35;;;;;;;3.28;0.70;;;;;;;6.39;88.44;100037.94;5075609;28;20035;-80
2023/01/08 10:16:04;;;;;;;3.67;1.08;;;;;;;6.42;88.34;100024.97;5081535;28;20028;-80
2023/01/08 10:18:29;;;;;;;4.45;0.95;;;;;;;6.45;88.26;100027.50;5057464;28;20204;-81
2023/01/08 10:20:56;;;;;;;4.38;0.80;;;;;;;6.48;88.49;100024.84;5083040;28;20230;-79
2023/01/08 10:23:22;;;;;;;4.18;0.90;;;;;;;6.53;88.40;100024.75;5081000;28;20111;-80
2023/01/08 10:25:49;;;;;;;4.25;0.90;;;;;;;6.57;88.42;100025.50;5078449;28;20128;-79
2023/01/08 10:28:20;;;;;;;3.22;0.98;;;;;;;6.62;88.53;100026.28;5070748;28;20484;-79
2023/01/08 10:30:46;;;;;;;3.78;0.85;;;;;;;6.65;88.50;100015.88;5071633;28;20119;-79
2023/01/08 10:33:23;;;;;;;3.95;0.80;;;;;;;6.68;88.32;100015.78;5071195;28;20123;-80
2023/01/08 10:35:56;;;;;;;5.18;0.80;;;;;;;6.72;88.40;100019.16;5075113;28;20039;-79
2023/01/08 10:38:29;;;;;;;2.00;0.68;;;;;;;6.75;88.12;100013.88;5070416;28;20039;-80
2023/01/08 10:40:55;;;;;;;3.83;0.70;;;;;;;6.81;88.19;100004.28;5076694;28;20024;-79
2023/01/08 10:43:26;;;;;;;3.38;0.73;;;;;;;6.86;88.49;100008.47;5070812;28;20744;-78
2023/01/08 10:46:20;;;;;;;4.75;0.85;;;;;;;6.92;87.93;100006.59;5073121;28;20023;-78
2023/01/08 10:48:50;;;;;;;3.67;0.70;;;;;;;6.94;87.94;99999.66;5061336;28;20106;-79
2023/01/08 10:51:20;;;;;;;1.88;0.60;;;;;;;6.96;88.42;99992.69;5072332;28;20024;-80
2023/01/08 10:53:46;;;;;;;1.85;0.60;;;;;;;7.01;87.22;99982.25;5052401;28;20045;-81
2023/01/08 10:56:39;;;;;;;2.55;0.70;;;;;;;7.04;87.45;99979.56;5053332;28;20110;-80
2023/01/08 10:59:05;;;;;;;4.90;0.63;;;;;;;7.06;87.10;99974.38;5069227;28;20383;-79
2023/01/08 11:01:31;;;;;;;1.38;0.52;;;;;;;7.09;86.77;99974.28;5067932;28;20502;-79
2023/01/08 11:04:03;;;;;;;1.73;0.60;;;;;;;7.14;86.56;99973.31;5069782;28;20113;-80
2023/01/08 11:06:35;;;;;;;1.85;0.50;;;;;;;7.17;86.62;99971.53;5067077;28;20024;-79
2023/01/08 11:09:17;;;;;;;1.58;0.50;;;;;;;7.23;86.56;99966.19;5067188;28;20115;-79
2023/01/08 11:11:42;;;;;;;;;;;;;;;7.31;86.54;99953.91;5073210;28;20056;-80
2023/01/08 11:14:28;;;;;;;1.17;0.45;;;;;;;7.36;85.86;99954.63;5071260;28;19959;-79
2023/01/08 11:16:54;;;;;;;0.80;0.47;;;;;;;7.40;86.01;99948.47;5067473;28;20031;-79
2023/01/08 11:19:26;;;;;;;1.40;0.40;;;;;;;7.46;85.87;99947.44;5073513;28;20032;-79
2023/01/08 11:21:59;;;;;;;1.38;0.38;;;;;;;7.51;86.17;99944.75;5067606;28;20040;-80
2023/01/08 11:24:28;;;;;;;1.63;0.50;;;;;;;7.55;85.24;99941.16;5077550;28;20057;-79
2023/01/08 11:27:15;;;;;;;1.00;0.40;;;;;;;7.61;85.81;99930.66;5085735;28;20477;-79
2023/01/08 11:30:01;;;;;;;0.88;0.40;;;;;;;7.67;85.29;99924.44;5084591;28;20118;-79
2023/01/08 11:32:48;;;;;;;0.80;0.30;;;;;;;7.74;85.09;99931.16;5086630;28;20090;-79
2023/01/08 11:35:24;;;;;;;1.30;0.35;;;;;;;7.79;84.65;99918.91;5085078;28;20127;-79
2023/01/08 11:37:57;;;;;;;0.40;0.30;;;;;;;7.83;84.56;99909.34;5088019;28;20036;-80